Airport View

Enter AWOS ICAO identifier for current METAR.

ex. KFNL

KEZS 262337Z AUTO 35006KT 10SM OVC045 M02/M11 A3010 RMK AO2 T10251112

26 Feb 2020 23:37

Frequency: 118.65

Phone: 715-526-2967

Other Area AWOS: KCLI - KGRB - KOCQ - KATW

TAF AMD KGRB 262035Z 2621/2718 35010G16KT P6SM -SHSN BKN035 FM270100 35008G15KT P6SM -SHSN SCT024 BKN035 FM270200 34008KT P6SM SCT024 BKN035 FM270600 32008KT P6SM SCT024 SCT250 FM271400 31011G17KT P6SM SKC